createdAt,value
2023-02-15T00:01:51.136Z,14.47
2023-02-15T00:04:22.791Z,12.70
2023-02-15T00:06:51.214Z,14.00
2023-02-15T00:09:18.952Z,12.53
2023-02-15T00:11:51.278Z,14.03
2023-02-15T00:14:20.965Z,12.70
2023-02-15T00:16:49.911Z,13.00
2023-02-15T00:19:20.844Z,14.20
2023-02-15T00:21:49.524Z,13.53
2023-02-15T00:24:19.637Z,11.63
2023-02-15T00:26:51.076Z,11.60
2023-02-15T00:29:20.762Z,12.53
2023-02-15T00:31:49.456Z,12.20
2023-02-15T00:34:20.697Z,11.40
2023-02-15T00:36:48.840Z,10.50
2023-02-15T00:39:17.690Z,11.40
2023-02-15T00:41:46.301Z,11.00
2023-02-15T00:44:14.607Z,11.40
2023-02-15T00:46:42.296Z,10.80
2023-02-15T00:49:10.553Z,10.57
2023-02-15T00:51:40.323Z,10.37
2023-02-15T00:54:08.320Z,8.90
2023-02-15T00:56:36.015Z,9.60
2023-02-15T00:59:04.119Z,9.00
2023-02-15T01:01:32.023Z,10.83
2023-02-15T01:03:59.811Z,10.83
2023-02-15T01:06:27.534Z,10.70
2023-02-15T01:08:56.544Z,10.00
2023-02-15T01:11:25.038Z,9.20
2023-02-15T01:13:54.453Z,10.40
2023-02-15T01:16:23.893Z,10.03
2023-02-15T01:18:51.851Z,9.43
2023-02-15T01:21:21.847Z,9.90
2023-02-15T01:23:50.132Z,10.80
2023-02-15T01:26:19.559Z,11.27
2023-02-15T01:28:47.929Z,9.73
2023-02-15T01:31:19.821Z,10.20
2023-02-15T01:33:48.627Z,11.03
2023-02-15T01:36:18.245Z,12.80
2023-02-15T01:38:46.225Z,11.60
2023-02-15T01:41:24.656Z,11.07
2023-02-15T01:43:55.564Z,10.90
2023-02-15T01:46:28.662Z,10.43
2023-02-15T01:49:02.008Z,9.97
2023-02-15T01:51:32.763Z,9.90
2023-02-15T01:54:04.858Z,11.50
2023-02-15T01:56:36.900Z,10.20
2023-02-15T01:59:11.090Z,9.97
2023-02-15T02:01:40.160Z,8.30
2023-02-15T02:04:15.354Z,9.00
2023-02-15T02:06:43.701Z,8.93
2023-02-15T02:09:11.941Z,9.40
2023-02-15T02:11:42.287Z,9.77
2023-02-15T02:14:11.373Z,8.97
2023-02-15T02:16:49.779Z,9.23
2023-02-15T02:19:47.615Z,8.73
2023-02-15T02:23:04.912Z,8.10
2023-02-15T02:26:20.484Z,7.93
2023-02-15T02:29:22.270Z,7.30
2023-02-15T02:32:19.939Z,6.23
2023-02-15T02:34:56.386Z,7.80
2023-02-15T02:37:30.075Z,7.17
2023-02-15T02:40:05.426Z,8.43
2023-02-15T02:42:41.019Z,8.77
2023-02-15T02:45:10.787Z,7.30
2023-02-15T02:47:43.777Z,7.37
2023-02-15T02:50:16.731Z,8.43
2023-02-15T02:52:46.019Z,7.60
2023-02-15T02:55:18.432Z,6.90
2023-02-15T02:57:53.223Z,7.77
2023-02-15T03:00:22.840Z,6.47
2023-02-15T03:02:55.505Z,6.40
2023-02-15T03:05:29.199Z,6.57
2023-02-15T03:07:58.833Z,6.53
2023-02-15T03:10:27.053Z,5.40
2023-02-15T03:12:55.516Z,5.43
2023-02-15T03:15:48.689Z,6.90
2023-02-15T03:18:19.440Z,6.53
2023-02-15T03:20:49.880Z,5.80
2023-02-15T03:23:22.300Z,5.17
2023-02-15T03:25:54.163Z,7.40
2023-02-15T03:28:27.406Z,6.10
2023-02-15T03:30:59.723Z,5.43
2023-02-15T03:33:29.781Z,6.30
2023-02-15T03:36:06.598Z,6.00
2023-02-15T03:38:41.070Z,5.53
2023-02-15T03:41:12.625Z,5.63
2023-02-15T03:43:47.393Z,6.80
2023-02-15T03:46:22.042Z,6.27
2023-02-15T03:48:54.081Z,5.20
2023-02-15T03:51:37.318Z,7.40
2023-02-15T03:54:08.765Z,6.03
2023-02-15T03:56:38.003Z,5.27
2023-02-15T03:59:23.751Z,4.53
2023-02-15T04:02:01.698Z,5.20
2023-02-15T04:04:36.593Z,6.20
2023-02-15T04:07:07.970Z,5.57
2023-02-15T04:10:04.612Z,4.80
2023-02-15T04:12:33.097Z,4.50
2023-02-15T04:15:18.441Z,5.40
2023-02-15T04:17:46.188Z,5.50
2023-02-15T04:20:31.555Z,5.40
2023-02-15T04:23:18.354Z,6.10
2023-02-15T04:25:46.270Z,5.70
2023-02-15T04:28:13.958Z,6.17
2023-02-15T04:30:41.648Z,6.53
2023-02-15T04:33:09.382Z,4.90
2023-02-15T04:35:37.081Z,5.17
2023-02-15T04:38:06.149Z,4.90
2023-02-15T04:40:33.918Z,4.80
2023-02-15T04:43:01.629Z,5.17
2023-02-15T04:45:29.399Z,4.33
2023-02-15T04:47:57.240Z,4.53
2023-02-15T04:50:24.959Z,4.67
2023-02-15T04:52:52.720Z,3.90
2023-02-15T04:55:21.771Z,4.57
2023-02-15T04:57:49.506Z,4.70
2023-02-15T05:00:17.744Z,5.17
2023-02-15T05:02:45.714Z,4.50
2023-02-15T05:05:16.009Z,4.20
2023-02-15T05:07:43.779Z,4.63
2023-02-15T05:10:11.684Z,5.10
2023-02-15T05:12:40.973Z,4.07
2023-02-15T05:15:09.422Z,4.67
2023-02-15T05:17:38.518Z,3.97
2023-02-15T05:20:07.758Z,4.57
2023-02-15T05:22:35.465Z,4.20
2023-02-15T05:25:21.038Z,4.67
2023-02-15T05:28:07.774Z,4.20
2023-02-15T05:30:35.739Z,4.20
2023-02-15T05:33:03.622Z,4.00
2023-02-15T05:35:31.338Z,3.50
2023-02-15T05:37:59.056Z,4.20
2023-02-15T05:40:26.775Z,4.30
2023-02-15T05:42:55.830Z,4.97
2023-02-15T05:45:23.571Z,4.57
2023-02-15T05:47:51.329Z,3.73
2023-02-15T05:50:19.517Z,3.53
2023-02-15T05:52:47.279Z,3.50
2023-02-15T05:55:14.970Z,3.90
2023-02-15T05:57:42.715Z,4.07
2023-02-15T06:00:14.758Z,4.03
2023-02-15T06:02:42.976Z,3.87
2023-02-15T06:05:10.914Z,3.80
2023-02-15T06:07:38.647Z,3.00
2023-02-15T06:10:07.744Z,3.70
2023-02-15T06:12:35.476Z,3.83
2023-02-15T06:15:03.235Z,3.93
2023-02-15T06:17:32.464Z,4.33
2023-02-15T06:20:00.171Z,4.47
2023-02-15T06:22:27.971Z,4.67
2023-02-15T06:24:55.693Z,4.63
2023-02-15T06:27:23.410Z,3.47
2023-02-15T06:29:51.135Z,3.70
2023-02-15T06:32:18.865Z,4.37
2023-02-15T06:34:48.856Z,4.07
2023-02-15T06:37:16.660Z,4.03
2023-02-15T06:39:45.110Z,4.30
2023-02-15T06:42:12.875Z,3.23
2023-02-15T06:44:40.579Z,3.87
2023-02-15T06:47:08.402Z,4.07
2023-02-15T06:49:36.145Z,3.67
2023-02-15T06:52:06.086Z,2.90
2023-02-15T06:54:33.858Z,5.73
2023-02-15T06:57:01.590Z,3.70
2023-02-15T06:59:29.316Z,3.53
2023-02-15T07:01:57.072Z,3.20
2023-02-15T07:04:24.843Z,3.53
2023-02-15T07:06:54.017Z,3.27
2023-02-15T07:09:23.524Z,3.60
2023-02-15T07:12:09.066Z,3.33
2023-02-15T07:14:36.779Z,3.60
2023-02-15T07:17:05.265Z,3.90
2023-02-15T07:19:33.040Z,3.53
2023-02-15T07:22:00.777Z,4.07
2023-02-15T07:24:29.891Z,3.40
2023-02-15T07:26:58.399Z,3.80
2023-02-15T07:29:26.197Z,3.70
2023-02-15T07:31:53.999Z,3.80
2023-02-15T07:34:21.891Z,3.77
2023-02-15T07:36:52.130Z,3.50
2023-02-15T07:39:19.888Z,3.67
2023-02-15T07:41:49.090Z,3.60
2023-02-15T07:44:17.191Z,4.70
2023-02-15T07:46:44.964Z,3.67
2023-02-15T07:49:12.722Z,3.30
2023-02-15T07:51:41.728Z,3.63
2023-02-15T07:54:09.490Z,3.40
2023-02-15T07:56:37.280Z,3.73
2023-02-15T07:59:06.357Z,4.13
2023-02-15T08:01:36.545Z,3.70
2023-02-15T08:04:05.023Z,3.60
2023-02-15T08:06:35.604Z,4.70
2023-02-15T08:09:05.515Z,4.97
2023-02-15T08:11:37.375Z,4.10
2023-02-15T08:14:09.163Z,4.83
2023-02-15T08:16:39.696Z,4.80
2023-02-15T08:19:09.612Z,5.47
2023-02-15T08:21:40.244Z,4.80
2023-02-15T08:24:10.106Z,5.20
2023-02-15T08:26:41.896Z,5.43
2023-02-15T08:29:11.991Z,5.30
2023-02-15T08:31:41.996Z,5.93
2023-02-15T08:34:11.450Z,4.30
2023-02-15T08:36:39.790Z,4.43
2023-02-15T08:39:08.831Z,4.70
2023-02-15T08:41:39.315Z,4.33
2023-02-15T08:44:08.769Z,4.40
2023-02-15T08:46:39.670Z,4.43
2023-02-15T08:49:08.180Z,4.83
2023-02-15T08:51:37.581Z,5.33
2023-02-15T08:54:07.287Z,6.63
2023-02-15T08:56:37.146Z,5.37
2023-02-15T08:59:06.439Z,5.07
2023-02-15T09:01:37.063Z,5.27
2023-02-15T09:04:09.570Z,5.67
2023-02-15T09:06:38.030Z,5.87
2023-02-15T09:09:06.462Z,7.80
2023-02-15T09:11:37.016Z,6.37
2023-02-15T09:14:08.269Z,6.43
2023-02-15T09:16:40.164Z,6.90
2023-02-15T09:19:08.740Z,6.50
2023-02-15T09:21:38.729Z,7.23
2023-02-15T09:24:08.558Z,6.93
2023-02-15T09:26:39.072Z,6.87
2023-02-15T09:29:06.818Z,7.20
2023-02-15T09:31:36.207Z,5.80
2023-02-15T09:34:05.625Z,6.67
2023-02-15T09:36:34.979Z,7.63
2023-02-15T09:39:08.605Z,16.80
2023-02-15T09:41:52.682Z,8.80
2023-02-15T09:44:31.576Z,9.60
2023-02-15T09:47:18.828Z,10.10
2023-02-15T09:49:52.946Z,8.87
2023-02-15T09:52:36.703Z,11.30
2023-02-15T09:55:19.966Z,11.60
2023-02-15T09:57:55.616Z,10.97
2023-02-15T10:00:31.850Z,10.90
2023-02-15T10:03:13.414Z,10.30
2023-02-15T10:05:55.464Z,10.57
2023-02-15T10:09:08.120Z,9.70
2023-02-15T10:11:50.922Z,9.87
2023-02-15T10:14:58.051Z,8.40
2023-02-15T10:17:37.682Z,6.80
2023-02-15T10:20:19.981Z,7.57
2023-02-15T10:23:04.197Z,7.17
2023-02-15T10:25:41.473Z,7.90
2023-02-15T10:28:17.538Z,9.20
2023-02-15T10:30:49.795Z,7.70
2023-02-15T10:33:36.766Z,7.00
2023-02-15T10:36:18.991Z,6.60
2023-02-15T10:38:51.825Z,6.40
2023-02-15T10:41:31.110Z,6.00
2023-02-15T10:44:15.601Z,5.80
2023-02-15T10:47:02.229Z,5.17
2023-02-15T10:49:51.056Z,6.10
2023-02-15T10:52:31.439Z,5.00
2023-02-15T10:55:10.185Z,5.07
2023-02-15T10:57:50.105Z,5.40
2023-02-15T11:00:25.047Z,5.37
2023-02-15T11:03:11.422Z,5.30
2023-02-15T11:05:49.997Z,5.50
2023-02-15T11:08:19.599Z,6.10
2023-02-15T11:10:53.437Z,5.03
2023-02-15T11:13:25.894Z,5.80
2023-02-15T11:15:58.914Z,5.90
2023-02-15T11:18:34.065Z,5.43
2023-02-15T11:21:04.980Z,6.33
2023-02-15T11:23:37.225Z,5.73
2023-02-15T11:26:12.520Z,6.23
2023-02-15T11:28:45.095Z,6.17
2023-02-15T11:31:17.931Z,6.70
2023-02-15T11:33:50.060Z,4.97
2023-02-15T11:36:22.061Z,5.20
2023-02-15T11:38:56.382Z,5.20
2023-02-15T11:41:29.130Z,5.30
2023-02-15T11:44:01.902Z,4.57
2023-02-15T11:46:29.855Z,4.90
2023-02-15T11:48:59.269Z,4.50
2023-02-15T11:51:29.771Z,5.23
2023-02-15T11:53:58.483Z,4.83
2023-02-15T11:56:28.061Z,5.27
2023-02-15T11:59:00.480Z,5.70
2023-02-15T12:01:33.895Z,4.93
2023-02-15T12:04:06.837Z,5.57
2023-02-15T12:06:39.538Z,5.87
2023-02-15T12:09:15.300Z,5.10
2023-02-15T12:11:44.375Z,6.30
2023-02-15T12:14:16.660Z,5.93
2023-02-15T12:16:47.069Z,5.07
2023-02-15T12:19:31.873Z,5.10
2023-02-15T12:22:01.152Z,5.60
2023-02-15T12:24:31.917Z,5.70
2023-02-15T12:27:03.652Z,5.63
2023-02-15T12:29:36.654Z,5.33
2023-02-15T12:32:05.871Z,5.10
2023-02-15T12:34:42.194Z,5.30
2023-02-15T12:37:19.098Z,5.67
2023-02-15T12:39:54.852Z,5.97
2023-02-15T12:42:24.799Z,5.20
2023-02-15T12:44:59.287Z,6.50
2023-02-15T12:47:29.563Z,6.93
2023-02-15T12:50:17.816Z,6.97
2023-02-15T12:52:48.515Z,6.00
2023-02-15T12:55:26.422Z,6.17
2023-02-15T12:58:10.268Z,7.90
2023-02-15T13:00:38.183Z,7.20
2023-02-15T13:03:06.377Z,6.30
2023-02-15T13:05:38.739Z,6.80
2023-02-15T13:08:14.380Z,7.67
2023-02-15T13:10:44.998Z,7.50
2023-02-15T13:13:22.711Z,6.97
2023-02-15T13:15:53.527Z,6.63
2023-02-15T13:18:30.474Z,7.47
2023-02-15T13:20:58.783Z,6.47
2023-02-15T13:23:29.821Z,7.23
2023-02-15T13:26:00.126Z,6.60
2023-02-15T13:28:39.407Z,7.10
2023-02-15T13:31:14.826Z,6.43
2023-02-15T13:33:46.413Z,5.30
2023-02-15T13:36:21.294Z,5.60
2023-02-15T13:38:57.482Z,6.23
2023-02-15T13:41:34.159Z,5.97
2023-02-15T13:44:27.753Z,6.77
2023-02-15T13:47:05.393Z,6.43
2023-02-15T13:49:47.158Z,6.57
2023-02-15T13:52:22.338Z,6.47
2023-02-15T13:55:08.629Z,6.40
2023-02-15T13:57:55.624Z,6.90
2023-02-15T14:00:29.973Z,7.33
2023-02-15T14:03:23.038Z,7.00
2023-02-15T14:06:15.579Z,7.60
2023-02-15T14:08:56.858Z,6.37
2023-02-15T14:11:35.440Z,6.60
2023-02-15T14:14:20.045Z,6.50
2023-02-15T14:17:06.100Z,6.33
2023-02-15T14:19:42.222Z,5.60
2023-02-15T14:22:17.562Z,5.97
2023-02-15T14:24:50.076Z,5.83
2023-02-15T14:27:27.577Z,5.97
2023-02-15T14:29:58.768Z,5.30
2023-02-15T14:32:36.352Z,6.67
2023-02-15T14:35:05.836Z,6.57
2023-02-15T14:37:42.786Z,5.97
2023-02-15T14:40:37.150Z,6.40
2023-02-15T14:43:13.760Z,6.90
2023-02-15T14:45:50.557Z,7.63
2023-02-15T14:48:26.169Z,6.17
2023-02-15T14:50:53.928Z,6.07
2023-02-15T14:53:48.439Z,6.23
2023-02-15T14:56:26.841Z,6.47
2023-02-15T14:59:15.213Z,6.30
2023-02-15T15:01:44.293Z,7.23
2023-02-15T15:04:23.520Z,7.07
2023-02-15T15:07:02.100Z,8.60
2023-02-15T15:09:31.705Z,6.27
2023-02-15T15:12:16.913Z,6.93
2023-02-15T15:14:46.733Z,7.27
2023-02-15T15:17:42.506Z,7.20
2023-02-15T15:20:17.623Z,6.53
2023-02-15T15:22:45.618Z,7.17
2023-02-15T15:25:29.711Z,6.40
2023-02-15T15:27:57.543Z,7.40
2023-02-15T15:31:02.002Z,8.10
2023-02-15T15:34:12.039Z,7.00
2023-02-15T15:37:29.612Z,7.43
2023-02-15T15:40:42.593Z,7.00
2023-02-15T15:43:41.629Z,7.47
2023-02-15T15:46:18.780Z,8.17
2023-02-15T15:48:46.666Z,8.23
2023-02-15T15:51:20.319Z,7.77
2023-02-15T15:53:54.106Z,6.87
2023-02-15T15:56:26.103Z,6.40
2023-02-15T15:58:58.101Z,6.77
2023-02-15T16:01:30.622Z,7.57
2023-02-15T16:04:00.215Z,7.80
2023-02-15T16:06:33.357Z,6.90
2023-02-15T16:09:14.059Z,7.47
2023-02-15T16:11:42.516Z,7.33
2023-02-15T16:14:16.025Z,7.17
2023-02-15T16:16:53.731Z,7.63
2023-02-15T16:19:25.824Z,7.60
2023-02-15T16:21:54.111Z,7.93
2023-02-15T16:24:35.875Z,6.97
2023-02-15T16:27:31.846Z,8.70
2023-02-15T16:29:59.647Z,6.90
2023-02-15T16:32:29.299Z,7.40
2023-02-15T16:34:58.816Z,7.33
2023-02-15T16:37:28.378Z,7.67
2023-02-15T16:39:57.792Z,7.37
2023-02-15T16:42:26.401Z,7.60
2023-02-15T16:44:57.506Z,7.50
2023-02-15T16:47:28.192Z,7.13
2023-02-15T16:49:59.710Z,7.10
2023-02-15T16:52:28.742Z,7.07
2023-02-15T16:55:00.986Z,8.60
2023-02-15T16:57:33.822Z,7.03
2023-02-15T17:00:05.909Z,8.07
2023-02-15T17:02:55.194Z,7.87
2023-02-15T17:05:23.731Z,8.70
2023-02-15T17:08:06.780Z,6.40
2023-02-15T17:10:39.793Z,6.40
2023-02-15T17:13:13.255Z,7.13
2023-02-15T17:15:42.696Z,7.80
2023-02-15T17:18:16.624Z,6.83
2023-02-15T17:20:45.932Z,7.00
2023-02-15T17:23:27.421Z,7.83
2023-02-15T17:25:57.832Z,6.50
2023-02-15T17:28:28.243Z,6.93
2023-02-15T17:30:57.628Z,8.00
2023-02-15T17:33:30.019Z,7.27
2023-02-15T17:36:07.064Z,6.70
2023-02-15T17:38:35.276Z,6.70
2023-02-15T17:41:04.746Z,7.13
2023-02-15T17:43:32.630Z,7.73
2023-02-15T17:46:00.663Z,7.73
2023-02-15T17:48:32.877Z,7.33
2023-02-15T17:51:02.554Z,6.50
2023-02-15T17:53:31.023Z,6.53
2023-02-15T17:55:57.837Z,6.13
2023-02-15T17:58:26.983Z,7.40
2023-02-15T18:01:15.744Z,7.00
2023-02-15T18:04:04.235Z,6.60
2023-02-15T18:06:50.003Z,6.57
2023-02-15T18:09:37.658Z,8.40
2023-02-15T18:12:16.272Z,7.77
2023-02-15T18:14:45.332Z,7.30
2023-02-15T18:17:14.793Z,7.40
2023-02-15T18:19:43.508Z,9.63
2023-02-15T18:22:12.613Z,7.80
2023-02-15T18:24:40.893Z,8.30
2023-02-15T18:27:08.665Z,7.67
2023-02-15T18:29:36.487Z,7.47
2023-02-15T18:32:09.631Z,8.87
2023-02-15T18:34:40.634Z,9.60
2023-02-15T18:37:14.188Z,7.30
2023-02-15T18:39:45.716Z,7.70
2023-02-15T18:42:21.380Z,7.63
2023-02-15T18:44:49.153Z,9.05
2023-02-15T18:47:18.156Z,7.73
2023-02-15T18:49:45.905Z,7.87
2023-02-15T18:52:16.955Z,7.70
2023-02-15T18:54:45.318Z,7.50
2023-02-15T18:57:15.565Z,8.60
2023-02-15T18:59:43.637Z,9.53
2023-02-15T19:02:14.772Z,8.13
2023-02-15T19:04:44.672Z,7.83
2023-02-15T19:07:18.428Z,8.50
2023-02-15T19:09:48.848Z,8.50
2023-02-15T19:12:16.664Z,9.03
2023-02-15T19:14:44.364Z,8.63
2023-02-15T19:17:18.390Z,8.43
2023-02-15T19:19:48.136Z,9.23
2023-02-15T19:22:16.875Z,9.77
2023-02-15T19:24:46.511Z,8.70
2023-02-15T19:27:22.213Z,9.00
2023-02-15T19:29:50.951Z,8.10
2023-02-15T19:32:18.965Z,9.63
2023-02-15T19:34:48.041Z,8.60
2023-02-15T19:37:25.085Z,9.63
2023-02-15T19:39:53.482Z,8.80
2023-02-15T19:42:24.365Z,9.23
2023-02-15T19:44:52.381Z,10.10
2023-02-15T19:47:20.490Z,10.90
2023-02-15T19:49:49.736Z,11.17
2023-02-15T19:52:19.422Z,12.83
2023-02-15T19:54:48.908Z,11.60
2023-02-15T19:57:17.136Z,11.50
2023-02-15T19:59:44.826Z,11.90
2023-02-15T20:02:18.542Z,13.17
2023-02-15T20:04:46.628Z,11.70
2023-02-15T20:07:23.538Z,11.53
2023-02-15T20:09:51.387Z,13.40
2023-02-15T20:12:24.688Z,12.80
2023-02-15T20:14:52.689Z,13.60
2023-02-15T20:17:20.669Z,14.00
2023-02-15T20:19:48.417Z,16.00
2023-02-15T20:22:24.033Z,15.03
2023-02-15T20:24:55.340Z,15.33
2023-02-15T20:27:23.509Z,16.00
2023-02-15T20:29:51.453Z,17.20
2023-02-15T20:32:19.280Z,15.67
2023-02-15T20:34:47.223Z,15.73
2023-02-15T20:37:23.166Z,16.20
2023-02-15T20:39:51.854Z,15.63
2023-02-15T20:42:20.390Z,16.27
2023-02-15T20:44:48.108Z,14.87
2023-02-15T20:47:15.864Z,15.27
2023-02-15T20:49:43.549Z,16.13
2023-02-15T20:52:19.285Z,17.95
2023-02-15T20:54:48.641Z,18.03
2023-02-15T20:57:16.809Z,17.33
2023-02-15T20:59:44.549Z,16.20
2023-02-15T21:02:17.675Z,16.57
2023-02-15T21:04:45.401Z,14.57
2023-02-15T21:07:15.852Z,15.80
2023-02-15T21:09:43.856Z,13.87
2023-02-15T21:12:14.861Z,13.57
2023-02-15T21:14:43.078Z,12.40
2023-02-15T21:17:12.786Z,12.40
2023-02-15T21:19:41.415Z,12.23
2023-02-15T21:22:12.805Z,13.83
2023-02-15T21:24:41.451Z,15.70
2023-02-15T21:27:15.287Z,16.13
2023-02-15T21:29:43.011Z,17.00
2023-02-15T21:32:11.306Z,15.93
2023-02-15T21:34:39.833Z,15.07
2023-02-15T21:37:25.626Z,15.00
2023-02-15T21:39:53.504Z,15.57
2023-02-15T21:42:54.572Z,13.90
2023-02-15T21:45:39.904Z,13.47
2023-02-15T21:48:07.641Z,13.80
2023-02-15T21:50:54.189Z,13.07
2023-02-15T21:53:25.053Z,14.03
2023-02-15T21:55:55.603Z,10.60
2023-02-15T21:58:26.913Z,10.80
2023-02-15T22:00:55.852Z,11.17
2023-02-15T22:03:24.580Z,10.47
2023-02-15T22:05:52.799Z,10.10
2023-02-15T22:08:27.262Z,10.07
2023-02-15T22:10:56.351Z,9.70
2023-02-15T22:13:29.109Z,10.10
2023-02-15T22:15:57.017Z,9.37
2023-02-15T22:18:26.976Z,9.73
2023-02-15T22:20:55.781Z,9.60
2023-02-15T22:23:24.425Z,10.47
2023-02-15T22:25:57.725Z,11.67
2023-02-15T22:28:33.592Z,10.90
2023-02-15T22:31:02.450Z,10.77
2023-02-15T22:33:31.941Z,10.50
2023-02-15T22:36:00.010Z,11.03
2023-02-15T22:38:27.851Z,11.23
2023-02-15T22:40:58.399Z,10.20
2023-02-15T22:43:38.046Z,10.63
2023-02-15T22:46:08.558Z,10.97
2023-02-15T22:48:36.710Z,10.57
2023-02-15T22:51:04.983Z,10.73
2023-02-15T22:53:33.263Z,10.73
2023-02-15T22:56:07.154Z,10.73
2023-02-15T22:58:36.415Z,12.70
2023-02-15T23:01:05.317Z,11.10
2023-02-15T23:03:34.144Z,11.63
2023-02-15T23:06:01.924Z,12.60
2023-02-15T23:08:29.731Z,11.30
2023-02-15T23:10:58.276Z,12.83
2023-02-15T23:13:30.159Z,12.60
2023-02-15T23:16:01.484Z,13.47
2023-02-15T23:18:32.822Z,12.50
2023-02-15T23:21:02.914Z,12.63
2023-02-15T23:23:33.495Z,13.23
2023-02-15T23:26:04.211Z,13.10
2023-02-15T23:28:36.654Z,12.77
2023-02-15T23:31:16.410Z,12.90
2023-02-15T23:33:44.694Z,13.40
2023-02-15T23:36:26.196Z,14.17
2023-02-15T23:38:54.283Z,15.03
2023-02-15T23:41:25.483Z,12.10
2023-02-15T23:43:56.293Z,12.67
2023-02-15T23:46:28.696Z,12.13
2023-02-15T23:48:57.328Z,12.47
2023-02-15T23:51:32.556Z,12.10
2023-02-15T23:54:00.300Z,12.27
2023-02-15T23:56:29.270Z,13.33
2023-02-15T23:58:57.024Z,12.73
